createdAt,value
2022-08-03T00:01:49.411Z,20.80
2022-08-03T00:04:16.160Z,20.70
2022-08-03T00:06:42.947Z,20.70
2022-08-03T00:09:09.785Z,20.60
2022-08-03T00:11:36.778Z,20.60
2022-08-03T00:14:03.552Z,20.60
2022-08-03T00:16:30.393Z,20.60
2022-08-03T00:18:57.106Z,20.60
2022-08-03T00:21:23.887Z,20.50
2022-08-03T00:23:51.146Z,20.50
2022-08-03T00:26:19.348Z,20.50
2022-08-03T00:28:46.091Z,20.50
2022-08-03T00:31:13.653Z,20.40
2022-08-03T00:33:58.855Z,20.40
2022-08-03T00:36:26.862Z,20.40
2022-08-03T00:38:53.583Z,20.40
2022-08-03T00:41:20.291Z,20.40
2022-08-03T00:43:47.844Z,20.40
2022-08-03T00:46:17.743Z,20.40
2022-08-03T00:48:47.539Z,20.40
2022-08-03T00:51:14.324Z,20.40
2022-08-03T00:53:41.120Z,20.50
2022-08-03T00:56:07.867Z,20.40
2022-08-03T00:58:34.627Z,20.40
2022-08-03T01:01:01.441Z,20.50
2022-08-03T01:03:28.336Z,20.40
2022-08-03T01:05:55.431Z,20.40
2022-08-03T01:08:22.188Z,20.40
2022-08-03T01:10:48.946Z,20.40
2022-08-03T01:14:01.047Z,20.30
2022-08-03T01:16:02.517Z,20.30
2022-08-03T01:18:29.360Z,20.20
2022-08-03T01:20:56.089Z,20.20
2022-08-03T01:23:28.873Z,20.20
2022-08-03T01:25:56.255Z,20.10
2022-08-03T01:28:23.591Z,20.10
2022-08-03T01:30:50.344Z,20.10
2022-08-03T01:33:17.151Z,20.10
2022-08-03T01:35:43.923Z,20.00
2022-08-03T01:38:10.682Z,20.00
2022-08-03T01:40:37.457Z,20.00
2022-08-03T01:43:04.199Z,20.00
2022-08-03T01:45:34.242Z,20.10
2022-08-03T01:48:01.278Z,20.10
2022-08-03T01:50:28.105Z,20.10
2022-08-03T01:52:54.911Z,20.10
2022-08-03T01:55:21.667Z,20.10
2022-08-03T01:58:06.295Z,20.10
2022-08-03T02:00:33.452Z,20.00
2022-08-03T02:03:00.184Z,20.00
2022-08-03T02:05:26.948Z,20.10
2022-08-03T02:07:53.816Z,20.10
2022-08-03T02:10:34.471Z,20.10
2022-08-03T02:13:02.683Z,20.10
2022-08-03T02:15:29.423Z,20.10
2022-08-03T02:17:56.144Z,20.00
2022-08-03T02:20:22.953Z,20.10
2022-08-03T02:22:49.730Z,20.00
2022-08-03T02:25:16.544Z,20.10
2022-08-03T02:27:44.127Z,20.00
2022-08-03T02:30:10.971Z,20.00
2022-08-03T02:32:37.728Z,19.90
2022-08-03T02:35:04.528Z,20.00
2022-08-03T02:37:31.299Z,20.00
2022-08-03T02:39:58.020Z,19.90
2022-08-03T02:42:24.908Z,19.90
2022-08-03T02:44:51.616Z,19.90
2022-08-03T02:47:20.966Z,19.90
2022-08-03T02:49:50.607Z,19.90
2022-08-03T02:52:18.795Z,19.80
2022-08-03T02:54:45.684Z,19.80
2022-08-03T02:57:12.501Z,19.80
2022-08-03T02:59:39.266Z,19.70
2022-08-03T03:02:06.196Z,19.70
2022-08-03T03:04:33.489Z,19.70
2022-08-03T03:07:01.914Z,19.70
2022-08-03T03:09:41.902Z,19.60
2022-08-03T03:12:10.228Z,19.60
2022-08-03T03:14:36.974Z,19.60
2022-08-03T03:17:03.708Z,19.60
2022-08-03T03:19:30.550Z,19.60
2022-08-03T03:21:57.294Z,19.60
2022-08-03T03:24:24.066Z,19.60
2022-08-03T03:26:50.823Z,19.60
2022-08-03T03:29:17.614Z,19.60
2022-08-03T03:31:44.366Z,19.60
2022-08-03T03:34:11.333Z,19.60
2022-08-03T03:36:38.095Z,19.60
2022-08-03T03:39:15.922Z,19.60
2022-08-03T03:41:43.175Z,19.60
2022-08-03T03:44:10.082Z,19.60
2022-08-03T03:46:36.862Z,19.50
2022-08-03T03:49:03.817Z,19.50
2022-08-03T03:51:30.612Z,19.60
2022-08-03T03:53:57.430Z,19.60
2022-08-03T03:56:24.249Z,19.60
2022-08-03T03:58:50.988Z,19.50
2022-08-03T04:01:18.129Z,19.50
2022-08-03T04:03:45.001Z,19.50
2022-08-03T04:06:30.720Z,19.50
2022-08-03T04:09:16.157Z,19.50
2022-08-03T04:11:42.906Z,19.50
2022-08-03T04:14:09.679Z,19.50
2022-08-03T04:16:38.799Z,19.50
2022-08-03T04:19:07.583Z,19.50
2022-08-03T04:21:34.322Z,19.50
2022-08-03T04:24:01.275Z,19.50
2022-08-03T04:26:27.999Z,19.50
2022-08-03T04:28:55.123Z,19.60
2022-08-03T04:31:21.870Z,19.50
2022-08-03T04:33:48.607Z,19.50
2022-08-03T04:36:15.399Z,19.50
2022-08-03T04:38:42.156Z,19.50
2022-08-03T04:41:08.897Z,19.50
2022-08-03T04:43:35.687Z,19.50
2022-08-03T04:46:02.564Z,19.50
2022-08-03T04:48:29.317Z,19.60
2022-08-03T04:50:56.036Z,19.60
2022-08-03T04:53:22.834Z,19.60
2022-08-03T04:55:50.043Z,19.70
2022-08-03T04:58:16.804Z,19.70
2022-08-03T05:00:45.731Z,19.70
2022-08-03T05:03:23.885Z,19.80
2022-08-03T05:05:51.981Z,19.80
2022-08-03T05:08:27.670Z,19.90
2022-08-03T05:10:55.218Z,19.90
2022-08-03T05:13:21.939Z,19.90
2022-08-03T05:15:49.400Z,19.90
2022-08-03T05:18:16.263Z,20.00
2022-08-03T05:20:42.979Z,20.00
2022-08-03T05:23:10.934Z,20.00
2022-08-03T05:25:37.802Z,20.00
2022-08-03T05:28:06.142Z,20.10
2022-08-03T05:30:34.094Z,20.10
2022-08-03T05:33:01.370Z,20.10
2022-08-03T05:36:01.089Z,20.20
2022-08-03T05:38:23.839Z,20.20
2022-08-03T05:40:57.290Z,20.30
2022-08-03T05:43:24.814Z,20.40
2022-08-03T05:46:11.540Z,20.40
2022-08-03T05:48:38.514Z,20.50
2022-08-03T05:51:07.602Z,20.50
2022-08-03T05:53:34.431Z,20.50
2022-08-03T05:56:13.273Z,20.60
2022-08-03T05:58:42.306Z,20.60
2022-08-03T06:01:09.163Z,20.70
2022-08-03T06:03:35.925Z,20.80
2022-08-03T06:06:02.751Z,20.80
2022-08-03T06:08:29.611Z,20.90
2022-08-03T06:10:56.376Z,20.90
2022-08-03T06:13:23.169Z,21.00
2022-08-03T06:15:49.975Z,21.00
2022-08-03T06:18:16.796Z,21.10
2022-08-03T06:20:43.679Z,21.10
2022-08-03T06:23:15.999Z,21.20
2022-08-03T06:25:44.160Z,21.20
2022-08-03T06:28:18.983Z,21.30
2022-08-03T06:30:50.694Z,21.30
2022-08-03T06:33:17.410Z,21.40
2022-08-03T06:35:44.704Z,21.40
2022-08-03T06:38:13.296Z,21.50
2022-08-03T06:40:40.194Z,21.50
2022-08-03T06:43:10.729Z,21.60
2022-08-03T06:45:39.371Z,21.70
2022-08-03T06:48:06.162Z,21.80
2022-08-03T06:50:33.014Z,21.90
2022-08-03T06:52:59.834Z,22.00
2022-08-03T06:55:26.632Z,22.10
2022-08-03T06:57:53.445Z,22.20
2022-08-03T07:00:20.260Z,22.30
2022-08-03T07:02:47.003Z,22.30
2022-08-03T07:05:13.952Z,22.40
2022-08-03T07:07:40.864Z,22.50
2022-08-03T07:10:07.661Z,22.60
2022-08-03T07:12:34.599Z,22.70
2022-08-03T07:15:02.966Z,22.80
2022-08-03T07:17:30.218Z,22.90
2022-08-03T07:19:57.044Z,23.00
2022-08-03T07:22:23.850Z,23.10
2022-08-03T07:24:50.629Z,23.30
2022-08-03T07:27:17.375Z,23.40
2022-08-03T07:29:44.155Z,23.50
2022-08-03T07:32:10.930Z,23.60
2022-08-03T07:34:37.690Z,23.70
2022-08-03T07:37:04.494Z,23.80
2022-08-03T07:39:31.234Z,23.80
2022-08-03T07:41:57.984Z,23.90
2022-08-03T07:44:24.835Z,24.10
2022-08-03T07:46:51.600Z,24.10
2022-08-03T07:49:18.818Z,24.20
2022-08-03T07:51:45.741Z,24.40
2022-08-03T07:54:12.485Z,24.50
2022-08-03T07:56:39.504Z,24.60
2022-08-03T07:59:06.496Z,24.70
2022-08-03T08:01:36.659Z,24.80
2022-08-03T08:04:03.492Z,24.90
2022-08-03T08:06:32.803Z,25.00
2022-08-03T08:09:02.320Z,25.10
2022-08-03T08:11:29.064Z,25.20
2022-08-03T08:13:55.870Z,25.40
2022-08-03T08:16:22.629Z,25.50
2022-08-03T08:18:49.376Z,25.50
2022-08-03T08:21:16.208Z,25.60
2022-08-03T08:23:46.244Z,25.70
2022-08-03T08:26:22.629Z,25.80
2022-08-03T08:28:49.409Z,26.00
2022-08-03T08:31:16.251Z,26.10
2022-08-03T08:34:03.095Z,26.20
2022-08-03T08:36:29.889Z,26.20
2022-08-03T08:38:56.765Z,26.20
2022-08-03T08:41:23.520Z,26.20
2022-08-03T08:44:00.203Z,26.30
2022-08-03T08:46:27.213Z,26.50
2022-08-03T08:48:54.075Z,26.70
2022-08-03T08:51:21.115Z,26.80
2022-08-03T08:53:47.878Z,27.00
2022-08-03T08:56:17.683Z,27.10
2022-08-03T08:58:44.645Z,27.10
2022-08-03T09:01:11.445Z,27.20
2022-08-03T09:03:38.253Z,27.30
2022-08-03T09:06:05.146Z,27.30
2022-08-03T09:08:31.873Z,27.30
2022-08-03T09:10:58.717Z,27.40
2022-08-03T09:13:25.722Z,27.50
2022-08-03T09:16:01.133Z,27.50
2022-08-03T09:18:30.525Z,27.60
2022-08-03T09:21:06.796Z,27.70
2022-08-03T09:24:01.684Z,27.80
2022-08-03T09:26:29.863Z,28.00
2022-08-03T09:29:04.683Z,28.00
2022-08-03T09:31:33.857Z,28.00
2022-08-03T09:34:01.519Z,28.10
2022-08-03T09:36:28.360Z,28.20
2022-08-03T09:38:55.206Z,28.30
2022-08-03T09:41:22.271Z,28.30
2022-08-03T09:43:51.685Z,28.30
2022-08-03T09:46:18.443Z,28.30
2022-08-03T09:48:45.395Z,28.30
2022-08-03T09:51:14.496Z,28.40
2022-08-03T09:54:01.897Z,28.50
2022-08-03T09:56:34.346Z,28.50
2022-08-03T09:59:03.376Z,28.50
2022-08-03T10:01:30.212Z,28.60
2022-08-03T10:04:04.303Z,28.60
2022-08-03T10:06:31.761Z,28.60
2022-08-03T10:08:58.519Z,28.70
2022-08-03T10:11:25.279Z,28.70
2022-08-03T10:13:52.470Z,28.70
2022-08-03T10:16:28.355Z,28.80
2022-08-03T10:18:57.289Z,28.80
2022-08-03T10:21:24.121Z,28.80
2022-08-03T10:23:50.847Z,28.90
2022-08-03T10:26:17.658Z,28.90
2022-08-03T10:28:45.478Z,29.00
2022-08-03T10:31:12.536Z,29.10
2022-08-03T10:33:49.251Z,29.20
2022-08-03T10:36:18.952Z,29.20
2022-08-03T10:38:52.993Z,29.20
2022-08-03T10:41:20.188Z,29.20
2022-08-03T10:43:49.033Z,29.10
2022-08-03T10:46:16.508Z,29.20
2022-08-03T10:48:43.273Z,29.20
2022-08-03T10:51:10.079Z,29.20
2022-08-03T10:53:37.164Z,29.40
2022-08-03T10:56:45.886Z,29.40
2022-08-03T10:59:10.587Z,29.40
2022-08-03T11:02:00.078Z,29.40
2022-08-03T11:04:24.611Z,29.50
2022-08-03T11:06:51.332Z,29.60
2022-08-03T11:09:18.141Z,29.50
2022-08-03T11:11:44.997Z,29.60
2022-08-03T11:14:11.855Z,29.70
2022-08-03T11:16:38.881Z,29.80
2022-08-03T11:19:05.788Z,29.80
2022-08-03T11:21:32.516Z,29.90
2022-08-03T11:24:03.214Z,30.10
2022-08-03T11:26:33.139Z,30.30
2022-08-03T11:29:00.003Z,30.40
2022-08-03T11:31:48.822Z,30.50
2022-08-03T11:34:13.681Z,30.50
2022-08-03T11:36:40.425Z,30.60
2022-08-03T11:39:07.241Z,30.60
2022-08-03T11:41:42.714Z,30.50
2022-08-03T11:44:11.885Z,30.20
2022-08-03T11:46:38.748Z,30.10
2022-08-03T11:49:09.951Z,30.00
2022-08-03T11:51:39.011Z,30.10
2022-08-03T11:54:05.803Z,30.30
2022-08-03T11:56:33.657Z,30.40
2022-08-03T11:59:20.395Z,30.50
2022-08-03T12:01:48.309Z,30.60
2022-08-03T12:04:16.672Z,30.50
2022-08-03T12:06:55.839Z,30.60
2022-08-03T12:09:22.734Z,30.50
2022-08-03T12:11:50.970Z,30.50
2022-08-03T12:14:50.786Z,30.50
2022-08-03T12:17:14.866Z,30.50
2022-08-03T12:19:41.835Z,30.50
2022-08-03T12:22:08.625Z,30.70
2022-08-03T12:24:35.434Z,30.70
2022-08-03T12:27:02.388Z,30.60
2022-08-03T12:29:29.245Z,30.70
2022-08-03T12:31:56.519Z,31.00
2022-08-03T12:34:23.563Z,31.00
2022-08-03T12:36:50.494Z,30.90
2022-08-03T12:39:17.368Z,30.90
2022-08-03T12:41:44.314Z,31.00
2022-08-03T12:44:12.901Z,31.20
2022-08-03T12:46:42.828Z,31.30
2022-08-03T12:49:12.856Z,31.30
2022-08-03T12:51:39.717Z,31.20
2022-08-03T12:54:07.379Z,31.20
2022-08-03T12:56:34.382Z,31.20
2022-08-03T12:59:01.408Z,31.20
2022-08-03T13:01:29.913Z,31.20
2022-08-03T13:03:59.110Z,31.30
2022-08-03T13:06:28.128Z,31.30
2022-08-03T13:08:54.913Z,31.30
2022-08-03T13:11:21.890Z,31.30
2022-08-03T13:13:48.829Z,31.50
2022-08-03T13:16:19.128Z,31.70
2022-08-03T13:18:49.403Z,31.70
2022-08-03T13:21:16.205Z,31.70
2022-08-03T13:23:43.100Z,31.80
2022-08-03T13:26:10.031Z,32.00
2022-08-03T13:28:36.848Z,32.20
2022-08-03T13:31:03.626Z,32.30
2022-08-03T13:33:30.420Z,32.40
2022-08-03T13:35:57.316Z,32.60
2022-08-03T13:38:27.228Z,32.60
2022-08-03T13:40:55.347Z,32.60
2022-08-03T13:43:22.868Z,32.60
2022-08-03T13:45:52.511Z,32.40
2022-08-03T13:48:35.946Z,32.50
2022-08-03T13:51:21.899Z,32.40
2022-08-03T13:53:49.770Z,32.40
2022-08-03T13:56:16.592Z,32.40
2022-08-03T13:58:43.795Z,32.30
2022-08-03T14:01:11.628Z,32.20
2022-08-03T14:03:38.431Z,32.20
2022-08-03T14:06:05.197Z,32.10
2022-08-03T14:08:32.151Z,32.10
2022-08-03T14:10:59.015Z,32.30
2022-08-03T14:13:25.829Z,32.40
2022-08-03T14:15:52.818Z,32.40
2022-08-03T14:18:28.713Z,32.30
2022-08-03T14:21:05.017Z,32.30
2022-08-03T14:23:33.229Z,32.40
2022-08-03T14:26:00.762Z,32.50
2022-08-03T14:28:27.537Z,32.40
2022-08-03T14:30:54.310Z,32.50
2022-08-03T14:33:21.653Z,32.60
2022-08-03T14:35:48.566Z,32.60
2022-08-03T14:38:15.565Z,32.80
2022-08-03T14:40:42.495Z,32.60
2022-08-03T14:43:09.256Z,32.60
2022-08-03T14:45:36.061Z,32.60
2022-08-03T14:50:33.073Z,32.80
2022-08-03T14:50:51.820Z,32.80
2022-08-03T14:53:19.112Z,32.70
2022-08-03T14:55:51.561Z,32.70
2022-08-03T14:58:20.527Z,32.70
2022-08-03T15:00:48.195Z,32.80
2022-08-03T15:03:16.693Z,32.90
2022-08-03T15:05:44.201Z,32.90
2022-08-03T15:08:11.140Z,33.00
2022-08-03T15:10:40.577Z,33.10
2022-08-03T15:13:11.709Z,33.00
2022-08-03T15:15:38.882Z,32.90
2022-08-03T15:18:05.656Z,32.80
2022-08-03T15:20:43.867Z,32.60
2022-08-03T15:23:11.835Z,32.60
2022-08-03T15:26:03.923Z,32.50
2022-08-03T15:28:25.572Z,32.50
2022-08-03T15:30:52.443Z,32.40
2022-08-03T15:33:19.243Z,32.40
2022-08-03T15:35:47.489Z,32.40
2022-08-03T15:38:14.325Z,32.40
2022-08-03T15:40:41.124Z,32.40
2022-08-03T15:43:11.477Z,32.40
2022-08-03T15:45:38.736Z,32.10
2022-08-03T15:48:06.627Z,32.10
2022-08-03T15:50:33.478Z,32.10
2022-08-03T15:53:00.352Z,32.00
2022-08-03T15:55:27.337Z,31.90
2022-08-03T15:59:04.358Z,32.10
2022-08-03T16:00:41.165Z,32.30
2022-08-03T16:03:07.930Z,32.40
2022-08-03T16:05:34.749Z,32.70
2022-08-03T16:08:03.431Z,32.80
2022-08-03T16:10:30.943Z,33.00
2022-08-03T16:12:59.038Z,32.90
2022-08-03T16:15:25.920Z,32.60
2022-08-03T16:17:52.953Z,32.50
2022-08-03T16:20:29.048Z,32.40
2022-08-03T16:23:00.752Z,32.30
2022-08-03T16:25:32.272Z,32.30
2022-08-03T16:28:07.595Z,32.50
2022-08-03T16:30:39.603Z,32.90
2022-08-03T16:33:06.340Z,33.10
2022-08-03T16:35:33.181Z,33.10
2022-08-03T16:38:00.239Z,33.00
2022-08-03T16:40:27.176Z,32.90
2022-08-03T16:42:53.965Z,32.90
2022-08-03T16:45:20.908Z,33.00
2022-08-03T16:47:47.961Z,33.10
2022-08-03T16:50:28.734Z,33.30
2022-08-03T16:52:56.120Z,33.30
2022-08-03T16:55:48.937Z,33.30
2022-08-03T16:58:12.459Z,33.60
2022-08-03T17:00:41.493Z,33.90
2022-08-03T17:03:18.743Z,34.00
2022-08-03T17:05:48.223Z,34.20
2022-08-03T17:08:26.316Z,34.30
2022-08-03T17:10:54.824Z,34.40
2022-08-03T17:13:22.830Z,34.40
2022-08-03T17:16:00.999Z,34.40
2022-08-03T17:18:29.883Z,34.30
2022-08-03T17:20:57.490Z,34.40
2022-08-03T17:23:34.927Z,34.50
2022-08-03T17:26:04.243Z,34.60
2022-08-03T17:28:49.398Z,34.70
2022-08-03T17:31:23.325Z,34.70
2022-08-03T17:33:58.426Z,34.70
2022-08-03T17:36:41.821Z,34.70
2022-08-03T17:39:14.314Z,34.70
2022-08-03T17:41:49.008Z,34.80
2022-08-03T17:44:33.028Z,34.70
2022-08-03T17:52:27.353Z,33.10
2022-08-03T17:55:56.879Z,32.50
2022-08-03T17:58:02.509Z,32.00
2022-08-03T18:00:46.520Z,31.40
2022-08-03T18:03:18.635Z,31.00
2022-08-03T18:06:10.357Z,30.60
2022-08-03T18:08:36.420Z,30.20
2022-08-03T18:11:14.292Z,29.80
2022-08-03T18:13:41.869Z,29.60
2022-08-03T18:16:20.197Z,29.40
2022-08-03T18:18:48.713Z,29.20
2022-08-03T18:21:17.544Z,29.00
2022-08-03T18:23:44.476Z,28.90
2022-08-03T18:26:12.239Z,28.70
2022-08-03T18:28:39.339Z,28.60
2022-08-03T18:31:07.580Z,28.50
2022-08-03T18:34:17.133Z,28.30
2022-08-03T18:36:30.506Z,28.20
2022-08-03T18:38:58.406Z,28.00
2022-08-03T18:41:33.379Z,27.90
2022-08-03T18:44:07.941Z,27.70
2022-08-03T18:46:36.841Z,27.60
2022-08-03T18:49:08.213Z,27.50
2022-08-03T18:51:43.042Z,27.50
2022-08-03T18:54:45.955Z,27.40
2022-08-03T18:57:00.412Z,27.30
2022-08-03T18:59:30.481Z,27.30
2022-08-03T19:02:01.287Z,27.20
2022-08-03T19:04:30.996Z,27.10
2022-08-03T19:06:57.856Z,27.00
2022-08-03T19:09:24.647Z,26.90
2022-08-03T19:12:13.215Z,26.80
2022-08-03T19:14:42.518Z,26.70
2022-08-03T19:17:09.330Z,26.70
2022-08-03T19:19:43.959Z,26.60
2022-08-03T19:22:11.640Z,26.60
2022-08-03T19:24:38.384Z,26.50
2022-08-03T19:27:05.117Z,26.50
2022-08-03T19:29:58.607Z,26.40
2022-08-03T19:32:24.520Z,26.30
2022-08-03T19:34:51.385Z,26.30
2022-08-03T19:37:19.052Z,26.20
2022-08-03T19:39:56.581Z,26.20
2022-08-03T19:42:24.104Z,26.10
2022-08-03T19:44:55.944Z,26.10
2022-08-03T19:47:22.767Z,26.00
2022-08-03T19:49:49.715Z,26.00
2022-08-03T19:52:32.347Z,25.90
2022-08-03T19:55:00.526Z,25.80
2022-08-03T19:57:27.419Z,25.70
2022-08-03T19:59:54.292Z,25.60
2022-08-03T20:05:11.945Z,25.50
2022-08-03T20:07:41.960Z,25.50
2022-08-03T20:10:15.461Z,25.50
2022-08-03T20:12:43.552Z,25.50
2022-08-03T20:15:10.801Z,25.50
2022-08-03T20:17:55.628Z,25.40
2022-08-03T20:20:24.091Z,25.40
2022-08-03T20:22:53.002Z,25.40
2022-08-03T20:25:24.410Z,25.40
2022-08-03T20:28:07.893Z,25.40
2022-08-03T20:30:42.560Z,25.30
2022-08-03T20:33:10.111Z,25.30
2022-08-03T20:35:36.867Z,25.20
2022-08-03T20:38:03.821Z,25.20
2022-08-03T20:40:30.565Z,25.20
2022-08-03T20:42:57.332Z,25.20
2022-08-03T20:45:59.187Z,25.20
2022-08-03T20:48:10.996Z,25.20
2022-08-03T20:50:37.882Z,25.20
2022-08-03T20:53:04.857Z,25.20
2022-08-03T20:55:48.209Z,25.10
2022-08-03T20:58:20.079Z,25.10
2022-08-03T21:00:51.472Z,25.10
2022-08-03T21:03:18.900Z,25.10
2022-08-03T21:05:48.029Z,25.10
2022-08-03T21:08:19.052Z,25.00
2022-08-03T21:10:45.853Z,25.00
2022-08-03T21:13:03.417Z,25.60
2022-08-03T21:13:04.598Z,33.80
2022-08-03T21:13:17.701Z,24.90
2022-08-03T21:16:06.756Z,24.90
2022-08-03T21:18:32.073Z,24.90
2022-08-03T21:20:58.840Z,24.90
2022-08-03T21:23:40.231Z,24.80
2022-08-03T21:26:12.757Z,24.80
2022-08-03T21:28:39.800Z,24.70
2022-08-03T21:31:06.692Z,24.70
2022-08-03T21:33:33.585Z,24.60
2022-08-03T21:36:01.922Z,24.50
2022-08-03T21:38:30.487Z,24.50
2022-08-03T21:40:57.436Z,24.30
2022-08-03T21:43:24.168Z,24.30
2022-08-03T21:45:50.973Z,24.20
2022-08-03T21:48:17.890Z,24.10
2022-08-03T21:50:44.701Z,24.00
2022-08-03T21:53:11.431Z,24.00
2022-08-03T21:55:38.194Z,23.90
2022-08-03T21:58:05.148Z,23.90
2022-08-03T22:00:31.944Z,23.90
2022-08-03T22:02:59.279Z,23.80
2022-08-03T22:05:43.477Z,23.80
2022-08-03T22:08:10.900Z,23.80
2022-08-03T22:10:37.651Z,23.80
2022-08-03T22:13:04.428Z,23.80
2022-08-03T22:15:31.270Z,23.70
2022-08-03T22:17:58.088Z,23.70
2022-08-03T22:20:24.878Z,23.60
2022-08-03T22:22:55.520Z,23.60
2022-08-03T22:25:23.217Z,23.60
2022-08-03T22:27:49.967Z,23.60
2022-08-03T22:30:16.867Z,23.50
2022-08-03T22:32:43.667Z,23.50
2022-08-03T22:35:10.438Z,23.50
2022-08-03T22:37:37.431Z,23.50
2022-08-03T22:40:04.209Z,23.40
2022-08-03T22:42:30.938Z,23.40
2022-08-03T22:44:57.899Z,23.40
2022-08-03T22:47:24.901Z,23.40
2022-08-03T22:50:31.210Z,23.40
2022-08-03T22:52:40.646Z,23.30
2022-08-03T22:55:07.419Z,23.30
2022-08-03T22:57:34.165Z,23.30
2022-08-03T23:00:01.157Z,23.20
2022-08-03T23:02:27.899Z,23.20
2022-08-03T23:04:54.624Z,23.10
2022-08-03T23:07:22.857Z,23.10
2022-08-03T23:09:49.801Z,23.10
2022-08-03T23:12:16.615Z,23.00
2022-08-03T23:14:43.519Z,23.00
2022-08-03T23:17:10.306Z,23.00
2022-08-03T23:19:44.681Z,23.00
2022-08-03T23:22:29.406Z,23.00
2022-08-03T23:24:56.668Z,22.90
2022-08-03T23:27:23.636Z,22.90
2022-08-03T23:29:50.366Z,22.80
2022-08-03T23:32:17.098Z,22.80
2022-08-03T23:35:02.636Z,22.70
2022-08-03T23:37:29.744Z,22.70
2022-08-03T23:39:56.474Z,22.70
2022-08-03T23:42:23.341Z,22.70
2022-08-03T23:44:50.072Z,22.70
2022-08-03T23:47:16.844Z,22.70
2022-08-03T23:52:18.193Z,22.60
2022-08-03T23:54:46.860Z,22.60
2022-08-03T23:57:13.742Z,22.60
2022-08-03T23:59:40.840Z,22.60
